Orbital elements of COSMOS 2251 DEB
| Launched | 15 June 1993 |
| Flight ended | – |
| Launch site | Plesetsk Missile and Space Complex, Russia |
| Owner | Commonwealth of Independent States (former USSR) |
| NORAD ID | 34454 |
| Date fetched |
Epoch osculation |
Inc. [°] |
Ecc. | RA asc node [hr] |
Arg Peri. [°] |
Mean anom [°] |
Mean motion [rev/day] |
Abs. mag |
| Date fetched |
Epoch osculation |
Inc. [°] |
Ecc. | RA asc node [hr] |
Arg Peri. [°] |
Mean anom [°] |
Mean motion [rev/day] |
Abs. mag |
| 2026 May 03 17:57 | 2026 Apr 30 03:11:53 | 74.0607 | 0.00342 | 1.5146 | 52.5702 | 307.8558 | 14.39022 | – |
| 2026 May 02 17:57 | 2026 Apr 30 03:11:53 | 74.0607 | 0.00342 | 1.5146 | 52.5702 | 307.8558 | 14.39022 | – |
| 2026 May 01 17:56 | 2026 Apr 30 03:11:53 | 74.0607 | 0.00342 | 1.5146 | 52.5702 | 307.8558 | 14.39022 | – |
| 2026 Apr 30 17:56 | 2026 Apr 30 03:11:53 | 74.0607 | 0.00342 | 1.5146 | 52.5702 | 307.8558 | 14.39022 | – |
| 2026 Apr 29 17:57 | 2026 Apr 24 05:22:40 | 74.0604 | 0.00341 | 2.2403 | 65.2195 | 307.8558 | 14.39022 | – |
| 2026 Apr 28 17:56 | 2026 Apr 24 05:22:40 | 74.0604 | 0.00341 | 2.2403 | 65.2195 | 307.8558 | 14.39022 | – |
| 2026 Apr 27 17:58 | 2026 Apr 24 05:22:40 | 74.0604 | 0.00341 | 2.2403 | 65.2195 | 307.8558 | 14.39022 | – |
| 2026 Apr 26 17:58 | 2026 Apr 24 05:22:40 | 74.0604 | 0.00341 | 2.2403 | 65.2195 | 307.8558 | 14.39022 | – |
| 2026 Apr 25 17:58 | 2026 Apr 24 05:22:40 | 74.0604 | 0.00341 | 2.2403 | 65.2195 | 307.8558 | 14.39022 | – |
| 2026 Apr 24 17:59 | 2026 Apr 24 05:22:40 | 74.0604 | 0.00341 | 2.2403 | 65.2195 | 307.8558 | 14.39022 | – |
| 2026 Apr 23 17:57 | 2026 Apr 19 05:14:49 | 74.0598 | 0.00339 | 2.8550 | 75.9615 | 307.8558 | 14.39022 | – |
| 2026 Apr 22 17:57 | 2026 Apr 19 05:14:49 | 74.0598 | 0.00339 | 2.8550 | 75.9615 | 307.8558 | 14.39022 | – |
| 2026 Apr 21 17:57 | 2026 Apr 19 05:14:49 | 74.0598 | 0.00339 | 2.8550 | 75.9615 | 307.8558 | 14.39022 | – |
| 2026 Apr 20 17:57 | 2026 Apr 19 05:14:49 | 74.0598 | 0.00339 | 2.8550 | 75.9615 | 307.8558 | 14.39022 | – |
| 2026 Apr 19 17:58 | 2026 Apr 19 05:14:49 | 74.0598 | 0.00339 | 2.8550 | 75.9615 | 307.8558 | 14.39022 | – |
| 2026 Apr 18 17:56 | 2026 Apr 13 05:45:24 | 74.0588 | 0.00338 | 3.5892 | 88.8922 | 307.8558 | 14.39022 | – |
| 2026 Apr 16 17:57 | 2026 Apr 13 05:45:24 | 74.0588 | 0.00338 | 3.5892 | 88.8922 | 307.8558 | 14.39022 | – |
| 2026 Apr 14 17:57 | 2026 Apr 13 05:45:24 | 74.0588 | 0.00338 | 3.5892 | 88.8922 | 307.8558 | 14.39022 | – |
| 2026 Apr 13 17:57 | 2026 Apr 13 05:45:24 | 74.0588 | 0.00338 | 3.5892 | 88.8922 | 307.8558 | 14.39022 | – |
| 2026 Apr 12 17:57 | 2026 Apr 08 07:17:36 | 74.0577 | 0.00338 | 4.1954 | 99.5682 | 307.8558 | 14.39022 | – |
| 2026 Apr 11 17:57 | 2026 Apr 08 07:17:36 | 74.0577 | 0.00338 | 4.1954 | 99.5682 | 307.8558 | 14.39022 | – |
| 2026 Apr 10 17:58 | 2026 Apr 08 07:17:36 | 74.0577 | 0.00338 | 4.1954 | 99.5682 | 307.8558 | 14.39022 | – |
| 2026 Apr 09 18:01 | 2026 Apr 08 07:17:36 | 74.0577 | 0.00338 | 4.1954 | 99.5682 | 307.8558 | 14.39022 | – |
| 2026 Apr 08 17:57 | 2026 Apr 08 07:17:36 | 74.0577 | 0.00338 | 4.1954 | 99.5682 | 307.8558 | 14.39022 | – |
| 2026 Apr 07 17:57 | 2026 Apr 02 01:07:40 | 74.0570 | 0.00338 | 4.9639 | 113.1477 | 307.8558 | 14.39022 | – |
| 2026 Apr 06 17:57 | 2026 Apr 02 01:07:40 | 74.0570 | 0.00338 | 4.9639 | 113.1477 | 307.8558 | 14.39022 | – |